sensor_id;sensor_type;location;lat;lon;timestamp;P1;P2;P0
72509;PMS5003;60532;56.114;40.350;2023-04-29T00:00:46;17.25;16.75;9.00
72509;PMS5003;60532;56.114;40.350;2023-04-29T00:02:47;16.75;16.25;9.00
72509;PMS5003;60532;56.114;40.350;2023-04-29T00:04:47;17.00;17.00;9.00
72509;PMS5003;60532;56.114;40.350;2023-04-29T00:06:48;16.75;16.75;8.00
72509;PMS5003;60532;56.114;40.350;2023-04-29T00:08:48;19.00;17.00;9.25
72509;PMS5003;60532;56.114;40.350;2023-04-29T00:10:48;16.00;16.00;8.50
72509;PMS5003;60532;56.114;40.350;2023-04-29T00:12:49;16.60;15.20;8.00
72509;PMS5003;60532;56.114;40.350;2023-04-29T00:14:50;11.20;10.40;3.60
72509;PMS5003;60532;56.114;40.350;2023-04-29T00:16:51;17.75;16.25;9.25
72509;PMS5003;60532;56.114;40.350;2023-04-29T00:18:51;16.50;16.50;8.00
72509;PMS5003;60532;56.114;40.350;2023-04-29T00:20:52;17.50;16.50;9.25
72509;PMS5003;60532;56.114;40.350;2023-04-29T00:22:52;16.00;15.75;8.00
72509;PMS5003;60532;56.114;40.350;2023-04-29T00:24:53;19.00;16.25;9.00
72509;PMS5003;60532;56.114;40.350;2023-04-29T00:26:53;15.50;15.50;8.75
72509;PMS5003;60532;56.114;40.350;2023-04-29T00:28:53;17.75;17.50;9.50
72509;PMS5003;60532;56.114;40.350;2023-04-29T00:30:54;15.25;15.25;9.50
72509;PMS5003;60532;56.114;40.350;2023-04-29T00:32:55;15.50;14.25;8.00
72509;PMS5003;60532;56.114;40.350;2023-04-29T00:34:55;15.00;13.75;8.25
72509;PMS5003;60532;56.114;40.350;2023-04-29T00:36:56;10.40;10.40;5.00
72509;PMS5003;60532;56.114;40.350;2023-04-29T00:38:56;18.50;18.50;9.25
72509;PMS5003;60532;56.114;40.350;2023-04-29T00:40:57;17.60;17.60;9.00
72509;PMS5003;60532;56.114;40.350;2023-04-29T00:42:58;15.25;15.00;8.00
72509;PMS5003;60532;56.114;40.350;2023-04-29T00:44:58;15.00;15.00;8.00
72509;PMS5003;60532;56.114;40.350;2023-04-29T00:46:59;18.00;17.25;9.00
72509;PMS5003;60532;56.114;40.350;2023-04-29T00:49:00;18.25;16.50;9.25
72509;PMS5003;60532;56.114;40.350;2023-04-29T00:51:00;16.75;15.00;8.00
72509;PMS5003;60532;56.114;40.350;2023-04-29T00:53:02;16.80;16.80;9.20
72509;PMS5003;60532;56.114;40.350;2023-04-29T00:55:03;12.20;11.80;5.20
72509;PMS5003;60532;56.114;40.350;2023-04-29T00:57:04;8.20;8.20;4.20
72509;PMS5003;60532;56.114;40.350;2023-04-29T00:59:06;5.40;5.40;2.40
72509;PMS5003;60532;56.114;40.350;2023-04-29T01:01:08;4.40;4.40;3.00
72509;PMS5003;60532;56.114;40.350;2023-04-29T01:03:09;3.75;3.75;2.00
72509;PMS5003;60532;56.114;40.350;2023-04-29T01:05:09;3.00;3.00;1.00
72509;PMS5003;60532;56.114;40.350;2023-04-29T01:11:33;2.00;2.00;0.00
72509;PMS5003;60532;56.114;40.350;2023-04-29T01:13:45;1.00;1.00;0.00
72509;PMS5003;60532;56.114;40.350;2023-04-29T01:17:58;0.00;0.00;0.00
72509;PMS5003;60532;56.114;40.350;2023-04-29T01:19:59;0.00;0.00;0.00
72509;PMS5003;60532;56.114;40.350;2023-04-29T01:22:00;1.60;1.60;1.00
72509;PMS5003;60532;56.114;40.350;2023-04-29T01:24:01;1.00;1.00;0.00
72509;PMS5003;60532;56.114;40.350;2023-04-29T01:26:01;1.50;1.50;0.00
72509;PMS5003;60532;56.114;40.350;2023-04-29T01:28:20;1.00;1.00;0.00
72509;PMS5003;60532;56.114;40.350;2023-04-29T01:30:36;1.00;1.00;0.00
72509;PMS5003;60532;56.114;40.350;2023-04-29T01:32:45;2.00;2.00;0.40
72509;PMS5003;60532;56.114;40.350;2023-04-29T01:37:13;0.80;0.80;0.00
72509;PMS5003;60532;56.114;40.350;2023-04-29T01:43:51;0.40;0.20;0.00
72509;PMS5003;60532;56.114;40.350;2023-04-29T01:45:51;1.00;1.00;0.00
72509;PMS5003;60532;56.114;40.350;2023-04-29T01:47:52;1.00;1.00;0.00
72509;PMS5003;60532;56.114;40.350;2023-04-29T01:49:55;1.00;1.00;0.00
72509;PMS5003;60532;56.114;40.350;2023-04-29T01:51:56;1.00;1.00;0.00
72509;PMS5003;60532;56.114;40.350;2023-04-29T01:53:56;1.25;1.25;0.00
72509;PMS5003;60532;56.114;40.350;2023-04-29T01:55:57;0.75;0.75;0.00
72509;PMS5003;60532;56.114;40.350;2023-04-29T01:57:58;1.00;1.00;0.50
72509;PMS5003;60532;56.114;40.350;2023-04-29T01:59:58;0.50;0.25;0.00
72509;PMS5003;60532;56.114;40.350;2023-04-29T02:01:58;2.00;2.00;1.00
72509;PMS5003;60532;56.114;40.350;2023-04-29T02:03:59;2.00;2.00;0.00
72509;PMS5003;60532;56.114;40.350;2023-04-29T02:05:59;2.25;2.25;0.25
72509;PMS5003;60532;56.114;40.350;2023-04-29T02:08:00;1.50;1.50;0.00
72509;PMS5003;60532;56.114;40.350;2023-04-29T02:10:01;1.00;1.00;0.25
72509;PMS5003;60532;56.114;40.350;2023-04-29T02:12:01;2.00;2.00;1.00
72509;PMS5003;60532;56.114;40.350;2023-04-29T02:14:03;1.00;1.00;0.00
72509;PMS5003;60532;56.114;40.350;2023-04-29T02:16:11;3.00;2.00;1.00
72509;PMS5003;60532;56.114;40.350;2023-04-29T02:18:11;1.80;1.80;0.00
72509;PMS5003;60532;56.114;40.350;2023-04-29T02:20:12;2.00;2.00;0.50
72509;PMS5003;60532;56.114;40.350;2023-04-29T02:22:12;1.50;1.50;0.00
72509;PMS5003;60532;56.114;40.350;2023-04-29T02:24:14;1.00;1.00;0.40
72509;PMS5003;60532;56.114;40.350;2023-04-29T02:26:14;1.50;1.50;0.75
72509;PMS5003;60532;56.114;40.350;2023-04-29T02:28:15;2.00;2.00;0.75
72509;PMS5003;60532;56.114;40.350;2023-04-29T02:30:16;1.00;1.00;0.00
72509;PMS5003;60532;56.114;40.350;2023-04-29T02:32:17;2.00;2.00;1.00
72509;PMS5003;60532;56.114;40.350;2023-04-29T02:34:19;2.00;2.00;0.00
72509;PMS5003;60532;56.114;40.350;2023-04-29T02:36:19;1.00;1.00;0.00
72509;PMS5003;60532;56.114;40.350;2023-04-29T02:38:20;1.00;1.00;1.00
72509;PMS5003;60532;56.114;40.350;2023-04-29T02:40:20;1.00;1.00;0.00
72509;PMS5003;60532;56.114;40.350;2023-04-29T02:42:21;2.00;2.00;0.75
72509;PMS5003;60532;56.114;40.350;2023-04-29T02:44:21;1.00;1.00;1.00
72509;PMS5003;60532;56.114;40.350;2023-04-29T02:46:21;3.00;1.00;0.25
72509;PMS5003;60532;56.114;40.350;2023-04-29T02:48:22;2.00;2.00;0.25
72509;PMS5003;60532;56.114;40.350;2023-04-29T02:50:22;1.00;1.00;0.50
72509;PMS5003;60532;56.114;40.350;2023-04-29T02:52:24;1.00;1.00;0.20
72509;PMS5003;60532;56.114;40.350;2023-04-29T02:54:25;1.50;1.00;0.00
72509;PMS5003;60532;56.114;40.350;2023-04-29T02:56:25;1.00;1.00;0.00
72509;PMS5003;60532;56.114;40.350;2023-04-29T02:58:25;1.00;1.00;1.00
72509;PMS5003;60532;56.114;40.350;2023-04-29T03:00:26;1.00;1.00;0.00
72509;PMS5003;60532;56.114;40.350;2023-04-29T03:02:26;1.25;1.25;0.50
72509;PMS5003;60532;56.114;40.350;2023-04-29T03:04:27;0.00;0.00;0.00
72509;PMS5003;60532;56.114;40.350;2023-04-29T03:06:27;1.00;1.00;0.75
72509;PMS5003;60532;56.114;40.350;2023-04-29T03:08:28;1.25;1.00;0.50
72509;PMS5003;60532;56.114;40.350;2023-04-29T03:10:28;1.00;1.00;0.00
72509;PMS5003;60532;56.114;40.350;2023-04-29T03:12:29;1.00;1.00;0.00
72509;PMS5003;60532;56.114;40.350;2023-04-29T03:14:29;0.00;0.00;0.00
72509;PMS5003;60532;56.114;40.350;2023-04-29T03:16:30;0.00;0.00;0.00
72509;PMS5003;60532;56.114;40.350;2023-04-29T03:18:30;0.00;0.00;0.00
72509;PMS5003;60532;56.114;40.350;2023-04-29T03:20:31;0.00;0.00;0.00
72509;PMS5003;60532;56.114;40.350;2023-04-29T03:22:32;0.00;0.00;0.00
72509;PMS5003;60532;56.114;40.350;2023-04-29T03:24:32;1.00;1.00;0.00
72509;PMS5003;60532;56.114;40.350;2023-04-29T03:26:32;0.00;0.00;0.00
72509;PMS5003;60532;56.114;40.350;2023-04-29T03:28:33;1.75;1.75;0.00
72509;PMS5003;60532;56.114;40.350;2023-04-29T03:30:33;0.00;0.00;0.00
72509;PMS5003;60532;56.114;40.350;2023-04-29T03:32:34;0.75;0.75;0.00
72509;PMS5003;60532;56.114;40.350;2023-04-29T03:34:35;0.00;0.00;0.00
72509;PMS5003;60532;56.114;40.350;2023-04-29T03:36:36;0.40;0.00;0.00
72509;PMS5003;60532;56.114;40.350;2023-04-29T03:38:36;0.25;0.00;0.00
72509;PMS5003;60532;56.114;40.350;2023-04-29T03:40:36;0.00;0.00;0.00
72509;PMS5003;60532;56.114;40.350;2023-04-29T03:42:37;0.00;0.00;0.00
72509;PMS5003;60532;56.114;40.350;2023-04-29T03:44:37;0.00;0.00;0.00
72509;PMS5003;60532;56.114;40.350;2023-04-29T03:46:38;0.00;0.00;0.00
72509;PMS5003;60532;56.114;40.350;2023-04-29T03:48:39;0.00;0.00;0.00
72509;PMS5003;60532;56.114;40.350;2023-04-29T03:50:40;0.00;0.00;0.00
72509;PMS5003;60532;56.114;40.350;2023-04-29T03:52:40;0.00;0.00;0.00
72509;PMS5003;60532;56.114;40.350;2023-04-29T03:54:42;0.00;0.00;0.00
72509;PMS5003;60532;56.114;40.350;2023-04-29T03:56:42;0.00;0.00;0.00
72509;PMS5003;60532;56.114;40.350;2023-04-29T03:58:43;0.40;0.40;0.00
72509;PMS5003;60532;56.114;40.350;2023-04-29T04:00:44;0.00;0.00;0.00
72509;PMS5003;60532;56.114;40.350;2023-04-29T04:02:45;0.00;0.00;0.00
72509;PMS5003;60532;56.114;40.350;2023-04-29T04:04:45;0.20;0.00;0.00
72509;PMS5003;60532;56.114;40.350;2023-04-29T04:06:46;0.00;0.00;0.00
72509;PMS5003;60532;56.114;40.350;2023-04-29T04:08:51;0.00;0.00;0.00
72509;PMS5003;60532;56.114;40.350;2023-04-29T04:10:51;0.00;0.00;0.00
72509;PMS5003;60532;56.114;40.350;2023-04-29T04:12:51;0.00;0.00;0.00
72509;PMS5003;60532;56.114;40.350;2023-04-29T04:14:52;0.00;0.00;0.00
72509;PMS5003;60532;56.114;40.350;2023-04-29T04:16:54;0.00;0.00;0.00
72509;PMS5003;60532;56.114;40.350;2023-04-29T04:18:55;0.00;0.00;0.00
72509;PMS5003;60532;56.114;40.350;2023-04-29T04:20:55;0.00;0.00;0.00
72509;PMS5003;60532;56.114;40.350;2023-04-29T04:22:56;0.25;0.00;0.00
72509;PMS5003;60532;56.114;40.350;2023-04-29T04:24:56;0.00;0.00;0.00
72509;PMS5003;60532;56.114;40.350;2023-04-29T04:26:57;0.00;0.00;0.00
72509;PMS5003;60532;56.114;40.350;2023-04-29T04:28:57;0.00;0.00;0.00
72509;PMS5003;60532;56.114;40.350;2023-04-29T04:30:58;0.00;0.00;0.00
72509;PMS5003;60532;56.114;40.350;2023-04-29T04:32:58;0.00;0.00;0.00
72509;PMS5003;60532;56.114;40.350;2023-04-29T04:34:59;0.00;0.00;0.00
72509;PMS5003;60532;56.114;40.350;2023-04-29T04:36:59;0.00;0.00;0.00
72509;PMS5003;60532;56.114;40.350;2023-04-29T04:39:00;0.00;0.00;0.00
72509;PMS5003;60532;56.114;40.350;2023-04-29T04:41:01;1.00;1.00;0.00
72509;PMS5003;60532;56.114;40.350;2023-04-29T04:43:01;0.00;0.00;0.00
72509;PMS5003;60532;56.114;40.350;2023-04-29T04:45:02;0.00;0.00;0.00
72509;PMS5003;60532;56.114;40.350;2023-04-29T04:47:03;0.00;0.00;0.00
72509;PMS5003;60532;56.114;40.350;2023-04-29T04:49:04;0.00;0.00;0.00
72509;PMS5003;60532;56.114;40.350;2023-04-29T04:51:08;0.00;0.00;0.00
72509;PMS5003;60532;56.114;40.350;2023-04-29T04:53:09;0.00;0.00;0.00
72509;PMS5003;60532;56.114;40.350;2023-04-29T04:55:10;0.00;0.00;0.00
72509;PMS5003;60532;56.114;40.350;2023-04-29T04:57:10;0.00;0.00;0.00
72509;PMS5003;60532;56.114;40.350;2023-04-29T04:59:11;0.00;0.00;0.00
72509;PMS5003;60532;56.114;40.350;2023-04-29T05:01:11;0.00;0.00;0.00
72509;PMS5003;60532;56.114;40.350;2023-04-29T05:03:11;0.00;0.00;0.00
72509;PMS5003;60532;56.114;40.350;2023-04-29T05:05:12;0.00;0.00;0.00
72509;PMS5003;60532;56.114;40.350;2023-04-29T05:07:12;0.00;0.00;0.00
72509;PMS5003;60532;56.114;40.350;2023-04-29T05:09:13;0.00;0.00;0.00
72509;PMS5003;60532;56.114;40.350;2023-04-29T05:11:17;0.50;0.00;0.00
72509;PMS5003;60532;56.114;40.350;2023-04-29T05:13:17;0.00;0.00;0.00
72509;PMS5003;60532;56.114;40.350;2023-04-29T05:15:18;0.00;0.00;0.00
72509;PMS5003;60532;56.114;40.350;2023-04-29T05:17:18;0.00;0.00;0.00
72509;PMS5003;60532;56.114;40.350;2023-04-29T05:19:19;0.00;0.00;0.00
72509;PMS5003;60532;56.114;40.350;2023-04-29T05:21:19;0.00;0.00;0.00
72509;PMS5003;60532;56.114;40.350;2023-04-29T05:23:20;0.00;0.00;0.00
72509;PMS5003;60532;56.114;40.350;2023-04-29T05:25:21;0.00;0.00;0.00
72509;PMS5003;60532;56.114;40.350;2023-04-29T05:27:22;0.50;0.50;0.00
72509;PMS5003;60532;56.114;40.350;2023-04-29T05:29:22;0.00;0.00;0.00
72509;PMS5003;60532;56.114;40.350;2023-04-29T05:31:23;0.00;0.00;0.00
72509;PMS5003;60532;56.114;40.350;2023-04-29T05:33:23;1.25;0.75;0.00
72509;PMS5003;60532;56.114;40.350;2023-04-29T05:35:24;0.00;0.00;0.00
72509;PMS5003;60532;56.114;40.350;2023-04-29T05:37:24;0.00;0.00;0.00
72509;PMS5003;60532;56.114;40.350;2023-04-29T05:39:29;0.00;0.00;0.00
72509;PMS5003;60532;56.114;40.350;2023-04-29T05:41:30;0.00;0.00;0.00
72509;PMS5003;60532;56.114;40.350;2023-04-29T05:43:30;0.00;0.00;0.00
72509;PMS5003;60532;56.114;40.350;2023-04-29T05:45:31;0.00;0.00;0.00
72509;PMS5003;60532;56.114;40.350;2023-04-29T05:47:31;0.00;0.00;0.00
72509;PMS5003;60532;56.114;40.350;2023-04-29T05:49:32;0.00;0.00;0.00
72509;PMS5003;60532;56.114;40.350;2023-04-29T05:51:32;0.75;0.00;0.00
72509;PMS5003;60532;56.114;40.350;2023-04-29T05:53:33;0.00;0.00;0.00
72509;PMS5003;60532;56.114;40.350;2023-04-29T05:55:34;0.00;0.00;0.00
72509;PMS5003;60532;56.114;40.350;2023-04-29T05:57:35;0.00;0.00;0.00
72509;PMS5003;60532;56.114;40.350;2023-04-29T05:59:35;0.00;0.00;0.00
72509;PMS5003;60532;56.114;40.350;2023-04-29T06:01:36;0.00;0.00;0.00
72509;PMS5003;60532;56.114;40.350;2023-04-29T06:03:37;0.00;0.00;0.00
72509;PMS5003;60532;56.114;40.350;2023-04-29T06:05:38;0.00;0.00;0.00
72509;PMS5003;60532;56.114;40.350;2023-04-29T06:07:38;0.00;0.00;0.00
72509;PMS5003;60532;56.114;40.350;2023-04-29T06:09:39;0.00;0.00;0.00
72509;PMS5003;60532;56.114;40.350;2023-04-29T06:11:40;0.00;0.00;0.00
72509;PMS5003;60532;56.114;40.350;2023-04-29T06:13:40;0.00;0.00;0.00
72509;PMS5003;60532;56.114;40.350;2023-04-29T06:15:41;1.00;0.00;0.00
72509;PMS5003;60532;56.114;40.350;2023-04-29T06:17:41;1.00;1.00;0.00
72509;PMS5003;60532;56.114;40.350;2023-04-29T06:19:42;0.00;0.00;0.00
72509;PMS5003;60532;56.114;40.350;2023-04-29T06:21:43;0.00;0.00;0.00
72509;PMS5003;60532;56.114;40.350;2023-04-29T06:23:44;0.80;0.00;0.00
72509;PMS5003;60532;56.114;40.350;2023-04-29T06:25:44;0.50;0.50;0.00
72509;PMS5003;60532;56.114;40.350;2023-04-29T06:27:45;0.00;0.00;0.00
72509;PMS5003;60532;56.114;40.350;2023-04-29T06:29:45;0.00;0.00;0.00
72509;PMS5003;60532;56.114;40.350;2023-04-29T06:31:46;0.00;0.00;0.00
72509;PMS5003;60532;56.114;40.350;2023-04-29T06:33:46;0.00;0.00;0.00
72509;PMS5003;60532;56.114;40.350;2023-04-29T06:35:47;1.00;0.00;0.00
72509;PMS5003;60532;56.114;40.350;2023-04-29T06:37:47;0.00;0.00;0.00
72509;PMS5003;60532;56.114;40.350;2023-04-29T06:39:48;0.00;0.00;0.00
72509;PMS5003;60532;56.114;40.350;2023-04-29T06:41:48;0.00;0.00;0.00
72509;PMS5003;60532;56.114;40.350;2023-04-29T06:43:49;0.00;0.00;0.00
72509;PMS5003;60532;56.114;40.350;2023-04-29T06:45:49;0.00;0.00;0.00
72509;PMS5003;60532;56.114;40.350;2023-04-29T06:47:50;0.00;0.00;0.00
72509;PMS5003;60532;56.114;40.350;2023-04-29T06:49:51;0.00;0.00;0.00
72509;PMS5003;60532;56.114;40.350;2023-04-29T06:51:52;0.00;0.00;0.00
72509;PMS5003;60532;56.114;40.350;2023-04-29T06:53:53;0.00;0.00;0.00
72509;PMS5003;60532;56.114;40.350;2023-04-29T06:55:53;0.00;0.00;0.00
72509;PMS5003;60532;56.114;40.350;2023-04-29T06:57:54;0.00;0.00;0.00
72509;PMS5003;60532;56.114;40.350;2023-04-29T06:59:54;1.00;0.00;0.00
72509;PMS5003;60532;56.114;40.350;2023-04-29T07:01:56;0.00;0.00;0.00
72509;PMS5003;60532;56.114;40.350;2023-04-29T07:03:58;0.00;0.00;0.00
72509;PMS5003;60532;56.114;40.350;2023-04-29T07:05:59;2.50;0.00;0.00
72509;PMS5003;60532;56.114;40.350;2023-04-29T07:08:00;0.00;0.00;0.00
72509;PMS5003;60532;56.114;40.350;2023-04-29T07:10:00;0.25;0.25;0.00
72509;PMS5003;60532;56.114;40.350;2023-04-29T07:12:01;0.00;0.00;0.00
72509;PMS5003;60532;56.114;40.350;2023-04-29T07:14:02;0.00;0.00;0.00
72509;PMS5003;60532;56.114;40.350;2023-04-29T07:16:03;0.00;0.00;0.00
72509;PMS5003;60532;56.114;40.350;2023-04-29T07:18:04;0.00;0.00;0.00
72509;PMS5003;60532;56.114;40.350;2023-04-29T07:20:05;0.00;0.00;0.00
72509;PMS5003;60532;56.114;40.350;2023-04-29T07:22:06;0.00;0.00;0.00
72509;PMS5003;60532;56.114;40.350;2023-04-29T07:24:06;0.00;0.00;0.00
72509;PMS5003;60532;56.114;40.350;2023-04-29T07:26:13;2.00;0.00;0.00
72509;PMS5003;60532;56.114;40.350;2023-04-29T07:28:16;0.00;0.00;0.00
72509;PMS5003;60532;56.114;40.350;2023-04-29T07:30:16;0.00;0.00;0.00
72509;PMS5003;60532;56.114;40.350;2023-04-29T07:32:16;0.00;0.00;0.00
72509;PMS5003;60532;56.114;40.350;2023-04-29T07:34:17;0.00;0.00;0.00
72509;PMS5003;60532;56.114;40.350;2023-04-29T07:36:18;0.00;0.00;0.00
72509;PMS5003;60532;56.114;40.350;2023-04-29T07:38:18;1.25;0.75;0.00
72509;PMS5003;60532;56.114;40.350;2023-04-29T07:40:20;0.00;0.00;0.00
72509;PMS5003;60532;56.114;40.350;2023-04-29T07:42:21;1.00;1.00;0.00
72509;PMS5003;60532;56.114;40.350;2023-04-29T07:44:21;1.00;1.00;0.00
72509;PMS5003;60532;56.114;40.350;2023-04-29T07:46:22;2.00;2.00;0.00
72509;PMS5003;60532;56.114;40.350;2023-04-29T07:48:22;1.50;1.50;0.00
72509;PMS5003;60532;56.114;40.350;2023-04-29T07:50:23;4.00;1.00;0.00
72509;PMS5003;60532;56.114;40.350;2023-04-29T07:52:23;2.50;1.00;0.00
72509;PMS5003;60532;56.114;40.350;2023-04-29T07:54:24;1.50;1.00;0.00
72509;PMS5003;60532;56.114;40.350;2023-04-29T07:56:25;1.00;1.00;0.00
72509;PMS5003;60532;56.114;40.350;2023-04-29T07:58:26;2.50;1.00;0.00
72509;PMS5003;60532;56.114;40.350;2023-04-29T08:00:27;1.20;0.00;0.00
72509;PMS5003;60532;56.114;40.350;2023-04-29T08:02:27;0.00;0.00;0.00
72509;PMS5003;60532;56.114;40.350;2023-04-29T08:04:28;0.00;0.00;0.00
72509;PMS5003;60532;56.114;40.350;2023-04-29T08:06:28;0.50;0.50;0.00
72509;PMS5003;60532;56.114;40.350;2023-04-29T08:08:30;0.00;0.00;0.00
72509;PMS5003;60532;56.114;40.350;2023-04-29T08:10:30;0.25;0.25;0.00
72509;PMS5003;60532;56.114;40.350;2023-04-29T08:12:31;0.00;0.00;0.00
72509;PMS5003;60532;56.114;40.350;2023-04-29T08:14:31;0.00;0.00;0.00
72509;PMS5003;60532;56.114;40.350;2023-04-29T08:16:32;0.00;0.00;0.00
72509;PMS5003;60532;56.114;40.350;2023-04-29T08:18:32;0.00;0.00;0.00
72509;PMS5003;60532;56.114;40.350;2023-04-29T08:20:33;0.75;0.75;0.00
72509;PMS5003;60532;56.114;40.350;2023-04-29T08:22:34;1.00;1.00;0.00
72509;PMS5003;60532;56.114;40.350;2023-04-29T08:24:34;1.00;1.00;0.00
72509;PMS5003;60532;56.114;40.350;2023-04-29T08:26:35;0.00;0.00;0.00
72509;PMS5003;60532;56.114;40.350;2023-04-29T08:28:35;0.25;0.00;0.00
72509;PMS5003;60532;56.114;40.350;2023-04-29T08:30:37;0.00;0.00;0.00
72509;PMS5003;60532;56.114;40.350;2023-04-29T08:32:37;1.00;1.00;0.00
72509;PMS5003;60532;56.114;40.350;2023-04-29T08:34:38;1.00;0.00;0.00
72509;PMS5003;60532;56.114;40.350;2023-04-29T08:36:40;0.00;0.00;0.00
72509;PMS5003;60532;56.114;40.350;2023-04-29T08:38:41;1.00;0.00;0.00
72509;PMS5003;60532;56.114;40.350;2023-04-29T08:40:42;0.00;0.00;0.00
72509;PMS5003;60532;56.114;40.350;2023-04-29T08:42:44;0.00;0.00;0.00
72509;PMS5003;60532;56.114;40.350;2023-04-29T08:44:45;0.00;0.00;0.00
72509;PMS5003;60532;56.114;40.350;2023-04-29T08:46:46;0.00;0.00;0.00
72509;PMS5003;60532;56.114;40.350;2023-04-29T08:48:47;0.40;0.40;0.00
72509;PMS5003;60532;56.114;40.350;2023-04-29T08:50:48;0.00;0.00;0.00
72509;PMS5003;60532;56.114;40.350;2023-04-29T08:52:48;0.00;0.00;0.00
72509;PMS5003;60532;56.114;40.350;2023-04-29T08:54:49;0.00;0.00;0.00
72509;PMS5003;60532;56.114;40.350;2023-04-29T08:56:50;0.00;0.00;0.00
72509;PMS5003;60532;56.114;40.350;2023-04-29T08:58:50;1.80;0.00;0.00
72509;PMS5003;60532;56.114;40.350;2023-04-29T09:00:53;0.00;0.00;0.00
72509;PMS5003;60532;56.114;40.350;2023-04-29T09:02:54;0.00;0.00;0.00
72509;PMS5003;60532;56.114;40.350;2023-04-29T09:04:59;0.00;0.00;0.00
72509;PMS5003;60532;56.114;40.350;2023-04-29T09:07:03;0.80;0.00;0.00
72509;PMS5003;60532;56.114;40.350;2023-04-29T09:09:05;0.00;0.00;0.00
72509;PMS5003;60532;56.114;40.350;2023-04-29T09:11:09;0.60;0.00;0.00
72509;PMS5003;60532;56.114;40.350;2023-04-29T09:15:24;1.00;0.00;0.00
72509;PMS5003;60532;56.114;40.350;2023-04-29T09:17:40;0.00;0.00;0.00
72509;PMS5003;60532;56.114;40.350;2023-04-29T09:19:41;0.00;0.00;0.00
72509;PMS5003;60532;56.114;40.350;2023-04-29T09:21:44;1.00;0.00;0.00
72509;PMS5003;60532;56.114;40.350;2023-04-29T09:23:54;1.00;0.40;0.00
72509;PMS5003;60532;56.114;40.350;2023-04-29T09:25:55;0.80;0.20;0.00
72509;PMS5003;60532;56.114;40.350;2023-04-29T09:27:56;0.00;0.00;0.00
72509;PMS5003;60532;56.114;40.350;2023-04-29T09:29:59;1.00;0.00;0.00
72509;PMS5003;60532;56.114;40.350;2023-04-29T09:32:15;1.00;1.00;0.00
72509;PMS5003;60532;56.114;40.350;2023-04-29T09:34:17;1.00;1.00;0.00
72509;PMS5003;60532;56.114;40.350;2023-04-29T09:38:36;0.00;0.00;0.00
72509;PMS5003;60532;56.114;40.350;2023-04-29T09:40:53;0.60;0.00;0.00
72509;PMS5003;60532;56.114;40.350;2023-04-29T09:42:55;0.00;0.00;0.00
72509;PMS5003;60532;56.114;40.350;2023-04-29T09:44:55;1.00;1.00;0.00
72509;PMS5003;60532;56.114;40.350;2023-04-29T09:47:00;0.50;0.50;0.00
72509;PMS5003;60532;56.114;40.350;2023-04-29T09:49:02;0.00;0.00;0.00
72509;PMS5003;60532;56.114;40.350;2023-04-29T09:51:04;0.40;0.40;0.00
72509;PMS5003;60532;56.114;40.350;2023-04-29T09:53:05;0.00;0.00;0.00
72509;PMS5003;60532;56.114;40.350;2023-04-29T09:55:09;1.00;0.40;0.00
72509;PMS5003;60532;56.114;40.350;2023-04-29T09:57:10;1.00;0.00;0.00
72509;PMS5003;60532;56.114;40.350;2023-04-29T09:59:11;1.60;1.60;0.00
72509;PMS5003;60532;56.114;40.350;2023-04-29T10:01:12;1.00;1.00;0.00
72509;PMS5003;60532;56.114;40.350;2023-04-29T10:03:13;0.00;0.00;0.00
72509;PMS5003;60532;56.114;40.350;2023-04-29T10:05:14;1.00;1.00;0.00
72509;PMS5003;60532;56.114;40.350;2023-04-29T10:07:15;0.60;0.60;0.00
72509;PMS5003;60532;56.114;40.350;2023-04-29T10:09:17;1.60;1.60;0.00
72509;PMS5003;60532;56.114;40.350;2023-04-29T10:11:18;2.20;1.40;0.00
72509;PMS5003;60532;56.114;40.350;2023-04-29T10:13:19;2.00;1.00;0.00
72509;PMS5003;60532;56.114;40.350;2023-04-29T10:15:28;1.00;1.00;0.00
72509;PMS5003;60532;56.114;40.350;2023-04-29T10:17:41;1.00;1.00;0.00
72509;PMS5003;60532;56.114;40.350;2023-04-29T10:21:46;1.20;1.20;0.00
72509;PMS5003;60532;56.114;40.350;2023-04-29T10:23:48;1.20;1.00;0.00
72509;PMS5003;60532;56.114;40.350;2023-04-29T10:25:49;1.40;1.40;0.00
72509;PMS5003;60532;56.114;40.350;2023-04-29T10:27:51;0.80;0.80;0.60
72509;PMS5003;60532;56.114;40.350;2023-04-29T10:29:52;1.00;0.60;0.00
72509;PMS5003;60532;56.114;40.350;2023-04-29T10:31:54;2.40;2.00;1.00
72509;PMS5003;60532;56.114;40.350;2023-04-29T10:33:55;1.40;1.40;1.00
72509;PMS5003;60532;56.114;40.350;2023-04-29T10:35:56;1.00;1.00;1.00
72509;PMS5003;60532;56.114;40.350;2023-04-29T10:37:58;1.00;1.00;0.00
72509;PMS5003;60532;56.114;40.350;2023-04-29T10:42:17;1.00;1.00;1.00
72509;PMS5003;60532;56.114;40.350;2023-04-29T10:44:20;2.20;2.20;2.00
72509;PMS5003;60532;56.114;40.350;2023-04-29T10:46:23;1.50;1.50;1.00
72509;PMS5003;60532;56.114;40.350;2023-04-29T10:48:25;2.00;2.00;1.00
72509;PMS5003;60532;56.114;40.350;2023-04-29T10:50:29;3.00;2.75;1.00
72509;PMS5003;60532;56.114;40.350;2023-04-29T10:52:29;2.60;1.60;0.80
72509;PMS5003;60532;56.114;40.350;2023-04-29T10:54:30;2.25;1.00;1.00
72509;PMS5003;60532;56.114;40.350;2023-04-29T10:56:46;2.00;2.00;1.00
72509;PMS5003;60532;56.114;40.350;2023-04-29T10:58:48;2.00;2.00;0.80
72509;PMS5003;60532;56.114;40.350;2023-04-29T11:00:48;2.00;2.00;1.00
72509;PMS5003;60532;56.114;40.350;2023-04-29T11:02:49;3.00;3.00;1.25
72509;PMS5003;60532;56.114;40.350;2023-04-29T11:05:08;1.00;1.00;0.00
72509;PMS5003;60532;56.114;40.350;2023-04-29T11:07:09;5.20;3.20;1.40
72509;PMS5003;60532;56.114;40.350;2023-04-29T11:09:26;2.00;2.00;1.00
72509;PMS5003;60532;56.114;40.350;2023-04-29T11:11:39;2.00;2.00;1.00
72509;PMS5003;60532;56.114;40.350;2023-04-29T11:13:39;4.00;2.20;1.00
72509;PMS5003;60532;56.114;40.350;2023-04-29T11:15:40;4.00;3.00;1.00
72509;PMS5003;60532;56.114;40.350;2023-04-29T11:17:40;4.00;2.00;1.00
72509;PMS5003;60532;56.114;40.350;2023-04-29T11:19:50;2.50;2.50;1.75
72509;PMS5003;60532;56.114;40.350;2023-04-29T11:22:02;2.40;2.40;1.40
72509;PMS5003;60532;56.114;40.350;2023-04-29T11:24:03;3.60;2.60;1.80
72509;PMS5003;60532;56.114;40.350;2023-04-29T11:26:05;3.40;3.40;1.00
72509;PMS5003;60532;56.114;40.350;2023-04-29T11:28:05;5.50;4.00;2.00
72509;PMS5003;60532;56.114;40.350;2023-04-29T11:30:06;5.00;3.50;1.75
72509;PMS5003;60532;56.114;40.350;2023-04-29T11:32:07;4.60;3.00;2.00
72509;PMS5003;60532;56.114;40.350;2023-04-29T11:34:08;3.00;3.00;2.00
72509;PMS5003;60532;56.114;40.350;2023-04-29T11:36:08;3.00;3.00;2.00
72509;PMS5003;60532;56.114;40.350;2023-04-29T11:38:10;3.00;3.00;1.00
72509;PMS5003;60532;56.114;40.350;2023-04-29T11:40:11;1.00;1.00;0.00
72509;PMS5003;60532;56.114;40.350;2023-04-29T11:42:12;3.00;2.80;1.80
72509;PMS5003;60532;56.114;40.350;2023-04-29T11:44:12;3.25;2.50;1.00
72509;PMS5003;60532;56.114;40.350;2023-04-29T11:46:13;3.00;3.00;1.00
72509;PMS5003;60532;56.114;40.350;2023-04-29T11:48:20;3.00;3.00;2.00
72509;PMS5003;60532;56.114;40.350;2023-04-29T11:50:20;2.00;2.00;1.00
72509;PMS5003;60532;56.114;40.350;2023-04-29T11:52:21;4.00;3.00;1.25
72509;PMS5003;60532;56.114;40.350;2023-04-29T11:54:23;2.00;2.00;0.50
72509;PMS5003;60532;56.114;40.350;2023-04-29T11:56:24;2.60;2.60;1.00
72509;PMS5003;60532;56.114;40.350;2023-04-29T11:58:25;2.25;2.25;1.00
72509;PMS5003;60532;56.114;40.350;2023-04-29T12:00:25;4.00;2.00;1.00
72509;PMS5003;60532;56.114;40.350;2023-04-29T12:02:29;1.75;1.75;1.00